Aérodrome :
LOGIN :

S'inscrire | Disclaimer

   EN    FR    IT 

 










Légende :    VFR   VFR Marginal   IFR   IFR Intensif   IFR Très Intensif
Visi : 
Plafond : 
>= 8 km
>= 3000ft
5 à 8 km
1000 à 3000 ft
1500m à 5 km
500 à 1000 ft
800 à 1500m
200 à 500 ft
< 800m
< 200 ft
Symboles :   Orages  Brouillard  Fortes neiges  Fortes précipitations  Vent > 20 kt
SIGMETs :   Divers  Orages  Givrage  Turbulence  Onde Orograph.  Cendres Volcan.







- Altitude de l'aérodrome : 39 ft
- Code IATA : ANR


EBAW - Anvers / Antwerpen Deurne

DERNIER METAR :
  • 180720Z VRB01KT 9999 FEW049 14/09 Q1028 NOSIG

METARs EXPIRÉS :
  • 180650Z VRB01KT 9999 FEW048 12/09 Q1028 NOSIG
  • 180620Z 00000KT 9999 FEW048 09/08 Q1027 NOSIG
  • 180550Z 17001KT 9999 FEW046 07/06 Q1027 NOSIG
  • 180520Z VRB01KT 9999 MIFG FEW046 06/05 Q1027 NOSIG
  • 180450Z 00000KT 9999 FEW046 08/06 Q1027 NOSIG

TAF TAF EBAW
Valide du 18 à 06h jusqu'au 18 à 15h UTC


180520Z 1806/1815 VRB03KT 9999 FEW045
Pas de NOTAMs connus pour ce terrain.



MET'MAP, la Météo Aéronautique d'un coup d'oeil ! - Copyright ORBIFLY Décembre 2007 - Disclaimer

ORBIFLY MET'MAP TEAM :

Programmation & Développement : Alexandra Zaïnal
Conception & Développement : Baudouin d'Aumeries
Co-Programmation & Développement : Marc-Olivier Méhu
Soutien technique & logistique : Manuel Goepfert

Contact : metmap@orbifly.com




SOURCES & CREDITS :

   NOAA